Time;durP1;ratioP1;P1;durP2;ratioP2;P2;SDS_P1;SDS_P2;PMS_P1;PMS_P2;Temp;Humidity;BMP_temperature;BMP_pressure;BME280_temperature;BME280_humidity;BME280_pressure;Samples;Min_cycle;Max_cycle;Signal;HPM_P1;HPM_P2
2021/08/29 00:01:31;;;;;;;28.63;20.50;;;;;;;23.91;90.75;99117.00;5127522;27;20071;-72
2021/08/29 00:03:56;;;;;;;28.33;21.65;;;;;;;23.71;92.48;99114.19;5127988;27;20251;-72
2021/08/29 00:06:22;;;;;;;29.33;20.60;;;;;;;23.86;92.01;99112.38;5127409;27;20344;-72
2021/08/29 00:08:47;;;;;;;29.27;22.00;;;;;;;23.89;92.18;99109.16;5127519;27;20036;-72
2021/08/29 00:11:13;;;;;;;28.80;21.95;;;;;;;23.93;92.30;99101.34;5126468;27;20390;-72
2021/08/29 00:13:38;;;;;;;29.40;21.95;;;;;;;23.93;92.35;99093.22;5112375;27;20057;-72
2021/08/29 00:16:04;;;;;;;28.77;21.63;;;;;;;24.16;90.93;99100.88;5124929;27;20031;-72
2021/08/29 00:18:29;;;;;;;28.42;20.90;;;;;;;24.29;89.67;99102.31;5128872;27;20095;-72
2021/08/29 00:20:55;;;;;;;29.70;21.85;;;;;;;24.31;90.22;99088.50;5126836;27;20031;-72
2021/08/29 00:23:20;;;;;;;28.42;21.40;;;;;;;24.37;89.22;99088.25;5130128;27;20039;-72
2021/08/29 00:25:45;;;;;;;31.55;21.25;;;;;;;24.37;89.46;99087.44;5106396;27;20216;-72
2021/08/29 00:28:11;;;;;;;34.78;22.17;;;;;;;24.36;89.40;99083.91;5126823;27;20309;-72
2021/08/29 00:30:36;;;;;;;27.67;22.13;;;;;;;24.19;89.46;99051.66;5129766;27;20031;-72
2021/08/29 00:33:02;;;;;;;36.65;21.73;;;;;;;24.23;90.15;99070.06;5124698;27;20042;-72
2021/08/29 00:35:29;;;;;;;34.33;24.00;;;;;;;24.09;90.72;99070.56;5127505;27;20047;-72
2021/08/29 00:37:54;;;;;;;35.28;26.58;;;;;;;23.97;91.37;99069.19;5126030;27;20034;-72
2021/08/29 00:40:20;;;;;;;37.00;26.60;;;;;;;23.94;92.01;99078.63;5128604;27;20024;-72
2021/08/29 00:42:46;;;;;;;33.53;26.85;;;;;;;23.92;92.47;99075.34;5126852;27;20043;-72
2021/08/29 00:45:11;;;;;;;38.45;27.60;;;;;;;23.93;92.95;99077.00;5127095;27;20304;-72
2021/08/29 00:47:38;;;;;;;36.63;27.10;;;;;;;23.80;93.20;99077.47;5145547;27;20051;-72
2021/08/29 00:50:05;;;;;;;35.30;27.85;;;;;;;23.88;93.08;99075.06;5127676;27;20042;-72
2021/08/29 00:52:30;;;;;;;34.45;26.40;;;;;;;23.84;92.34;99065.06;5125143;27;20332;-72
2021/08/29 00:54:55;;;;;;;30.83;26.38;;;;;;;23.95;91.55;99072.16;5128254;27;20053;-72
2021/08/29 00:57:21;;;;;;;40.30;26.05;;;;;;;24.12;90.09;99067.34;5125929;27;20240;-72
2021/08/29 00:59:46;;;;;;;31.75;25.17;;;;;;;24.32;89.07;99066.59;5123858;27;20266;-72
2021/08/29 01:02:16;;;;;;;35.22;25.85;;;;;;;24.25;88.70;99066.00;5125558;27;20427;-72
2021/08/29 01:05:00;;;;;;;34.00;26.13;;;;;;;24.18;88.96;99068.97;5124991;27;20084;-72
2021/08/29 01:07:29;;;;;;;42.35;31.80;;;;;;;24.26;88.35;99067.63;5129336;27;20023;-72
2021/08/29 01:09:59;;;;;;;65.97;47.78;;;;;;;24.10;89.14;99063.28;5123922;27;20379;-72
2021/08/29 01:12:29;;;;;;;70.68;50.05;;;;;;;23.90;90.78;99064.00;5127157;27;20042;-72
2021/08/29 01:14:55;;;;;;;59.72;44.17;;;;;;;23.97;90.26;99061.88;5125750;27;20034;-72
2021/08/29 01:17:27;;;;;;;50.50;39.38;;;;;;;24.05;89.88;99063.25;5129891;27;20035;-72
2021/08/29 01:19:59;;;;;;;48.42;36.35;;;;;;;24.14;89.20;99061.66;5124976;27;20096;-72
2021/08/29 01:22:25;;;;;;;48.90;35.15;;;;;;;24.13;88.55;99058.13;5128623;27;20043;-72
2021/08/29 01:24:52;;;;;;;41.67;33.70;;;;;;;24.35;87.14;99054.41;5124732;27;20050;-72
2021/08/29 01:27:26;;;;;;;40.78;30.95;;;;;;;24.28;87.05;99057.38;5130165;27;20027;-72
2021/08/29 01:29:52;;;;;;;44.83;30.30;;;;;;;24.27;86.84;99055.75;5103056;28;20041;-72
2021/08/29 01:32:20;;;;;;;37.55;29.05;;;;;;;24.16;86.95;99057.59;5127907;27;20031;-72
2021/08/29 01:34:48;;;;;;;36.00;26.77;;;;;;;24.10;87.56;99052.44;5122177;27;20259;-72
2021/08/29 01:37:16;;;;;;;41.17;31.20;;;;;;;24.19;87.68;99062.47;5126619;27;20376;-72
2021/08/29 01:39:42;;;;;;;45.40;33.55;;;;;;;24.13;88.73;99052.72;5126288;27;20030;-72
2021/08/29 01:42:08;;;;;;;40.55;30.98;;;;;;;24.11;88.94;99048.66;5127306;27;20074;-72
2021/08/29 01:44:34;;;;;;;38.63;29.85;;;;;;;24.18;88.00;99041.91;5122681;27;20031;-72
2021/08/29 01:47:00;;;;;;;44.45;33.03;;;;;;;24.25;87.59;99044.38;5108828;27;20042;-72
2021/08/29 01:49:27;;;;;;;47.35;36.05;;;;;;;24.26;87.04;99042.47;5125167;27;20039;-72
2021/08/29 01:51:52;;;;;;;46.85;32.97;;;;;;;24.19;87.07;99051.66;5127673;27;20039;-72
2021/08/29 01:54:18;;;;;;;42.83;29.98;;;;;;;24.03;88.38;99051.91;5123270;27;20032;-72
2021/08/29 01:57:16;;;;;;;47.92;35.58;;;;;;;24.24;87.66;99055.47;5125738;27;20038;-72
2021/08/29 01:59:43;;;;;;;49.40;37.75;;;;;;;24.16;88.49;99049.50;5090755;27;20047;-72
2021/08/29 02:02:11;;;;;;;57.05;39.50;;;;;;;24.23;88.17;99051.13;5127505;27;20325;-72
2021/08/29 02:04:37;;;;;;;59.95;39.90;;;;;;;24.24;88.10;99048.16;5121993;27;20064;-72
2021/08/29 02:07:12;;;;;;;57.25;40.58;;;;;;;24.05;89.15;99049.72;5129423;27;20026;-72
2021/08/29 02:09:39;;;;;;;55.10;38.17;;;;;;;24.10;88.80;99047.84;5122683;27;20039;-72
2021/08/29 02:12:07;;;;;;;51.40;38.78;;;;;;;24.03;88.82;99051.91;5126327;27;20027;-72
2021/08/29 02:14:40;;;;;;;51.30;33.03;;;;;;;23.95;89.61;99055.13;5122098;27;20024;-72
2021/08/29 02:17:09;;;;;;;32.95;26.05;;;;;;;24.02;88.43;99045.66;5128736;27;20048;-72
2021/08/29 02:19:35;;;;;;;28.95;22.80;;;;;;;24.15;86.76;99034.34;5127388;27;20051;-72
2021/08/29 02:22:01;;;;;;;31.33;21.33;;;;;;;24.14;86.72;99042.72;5123749;27;20028;-72
2021/08/29 02:24:29;;;;;;;24.92;19.00;;;;;;;23.95;87.35;99036.19;5124602;27;20031;-72
2021/08/29 02:26:55;;;;;;;22.50;18.42;;;;;;;23.92;87.72;99044.81;5126305;27;20054;-72
2021/08/29 02:29:21;;;;;;;19.02;16.45;;;;;;;24.01;86.38;99033.22;5127303;27;20251;-72
2021/08/29 02:31:49;;;;;;;19.33;14.60;;;;;;;24.07;85.17;99034.88;5124842;27;20024;-72
2021/08/29 02:34:14;;;;;;;19.33;14.75;;;;;;;24.12;84.51;99029.47;5126368;27;20038;-72
2021/08/29 02:36:41;;;;;;;21.45;14.50;;;;;;;23.95;85.64;99031.59;5125179;27;20216;-72
2021/08/29 02:39:08;;;;;;;25.35;14.50;;;;;;;23.82;86.08;99037.47;5103926;28;20031;-72
2021/08/29 02:41:36;;;;;;;20.13;14.40;;;;;;;23.50;87.59;99029.47;5125842;27;20015;-72
2021/08/29 02:44:02;;;;;;;22.23;15.63;;;;;;;23.52;87.38;99032.72;5121361;28;20043;-72
2021/08/29 02:46:28;;;;;;;19.00;15.25;;;;;;;23.73;87.18;99025.53;5127572;27;20133;-72
2021/08/29 02:48:53;;;;;;;21.13;14.27;;;;;;;23.85;86.46;99016.13;5122045;27;20042;-72
2021/08/29 02:51:23;;;;;;;21.67;15.65;;;;;;;24.04;84.85;99010.25;5125892;28;20036;-72
2021/08/29 02:53:48;;;;;;;19.27;14.52;;;;;;;23.91;84.99;99008.03;5125944;28;20288;-72
2021/08/29 02:56:15;;;;;;;22.77;16.00;;;;;;;23.70;86.83;99017.97;5142709;27;20045;-72
2021/08/29 02:58:40;;;;;;;26.00;15.60;;;;;;;23.62;87.26;99019.28;5128463;28;20039;-72
2021/08/29 03:01:06;;;;;;;21.15;15.05;;;;;;;23.64;87.74;99025.25;5127828;28;20018;-72
2021/08/29 03:03:31;;;;;;;20.20;14.70;;;;;;;23.44;88.19;99025.94;5121558;28;20035;-72
2021/08/29 03:05:57;;;;;;;22.00;15.95;;;;;;;23.25;89.68;99030.16;5125496;27;20177;-72
2021/08/29 03:08:23;;;;;;;23.67;16.60;;;;;;;23.14;90.27;99032.00;5126083;28;20296;-72
2021/08/29 03:10:48;;;;;;;21.70;16.08;;;;;;;23.09;91.54;99033.84;5126310;28;20255;-72
2021/08/29 03:13:14;;;;;;;21.45;14.88;;;;;;;23.12;91.61;99030.63;5125337;27;20316;-72
2021/08/29 03:15:40;;;;;;;23.33;15.77;;;;;;;23.31;90.07;99029.13;5132989;27;20103;-72
2021/08/29 03:18:06;;;;;;;22.77;16.02;;;;;;;23.23;90.50;99035.84;5143931;27;20357;-73
2021/08/29 03:20:32;;;;;;;22.48;16.95;;;;;;;23.20;90.65;99033.66;5145461;27;20031;-72
2021/08/29 03:22:58;;;;;;;21.40;15.98;;;;;;;23.25;89.90;99041.78;5139168;27;20039;-72
2021/08/29 03:25:23;;;;;;;24.42;16.05;;;;;;;23.23;89.66;99043.94;5140276;27;20031;-72
2021/08/29 03:27:49;;;;;;;22.58;16.33;;;;;;;23.28;89.48;99034.22;5139239;27;20031;-72
2021/08/29 03:30:14;;;;;;;23.10;15.82;;;;;;;23.28;89.70;99045.03;5119469;27;20019;-72
2021/08/29 03:32:42;;;;;;;25.50;17.05;;;;;;;23.41;88.90;99039.16;5142565;27;20046;-72
2021/08/29 03:35:09;;;;;;;23.48;17.52;;;;;;;23.53;88.35;99045.97;5141792;27;20320;-73
2021/08/29 03:37:35;;;;;;;24.17;16.65;;;;;;;23.62;87.22;99042.81;5141752;27;20027;-72
2021/08/29 03:40:02;;;;;;;24.15;16.45;;;;;;;23.49;87.69;99034.06;5125660;27;20035;-72
2021/08/29 03:42:30;;;;;;;21.95;16.33;;;;;;;23.38;87.90;99047.78;5136929;27;20041;-72
2021/08/29 03:44:56;;;;;;;23.52;17.98;;;;;;;23.17;89.95;99053.09;5138034;27;20031;-72
2021/08/29 03:47:22;;;;;;;25.13;17.85;;;;;;;23.30;89.55;99054.50;5123382;27;20098;-72
2021/08/29 03:49:48;;;;;;;30.38;17.67;;;;;;;23.62;87.61;99050.91;5137693;27;20034;-72
2021/08/29 03:52:17;;;;;;;24.00;17.50;;;;;;;23.62;87.39;99046.31;5136454;27;20237;-72
2021/08/29 03:54:44;;;;;;;25.27;18.23;;;;;;;23.70;87.15;99048.50;5139712;27;20042;-72
2021/08/29 03:57:11;;;;;;;30.30;17.42;;;;;;;23.72;86.77;99040.94;5139585;27;20025;-72
2021/08/29 03:59:36;;;;;;;24.67;18.13;;;;;;;23.72;86.92;99040.94;5140945;27;20031;-72
2021/08/29 04:02:03;;;;;;;25.90;19.05;;;;;;;23.91;85.86;99044.00;5138783;27;20027;-72
2021/08/29 04:04:29;;;;;;;26.67;18.17;;;;;;;23.83;85.60;99039.09;5139292;27;20067;-72
2021/08/29 04:06:55;;;;;;;29.70;19.95;;;;;;;23.73;86.77;99039.06;5128312;27;20102;-72
2021/08/29 04:09:22;;;;;;;30.02;19.60;;;;;;;23.67;87.72;99049.03;5127177;27;20032;-72
2021/08/29 04:11:49;;;;;;;27.77;18.88;;;;;;;23.71;87.05;99036.63;5112281;27;20035;-72
2021/08/29 04:14:15;;;;;;;23.48;18.08;;;;;;;23.76;86.44;99050.16;5129584;27;20059;-72
2021/08/29 04:16:40;;;;;;;21.38;18.80;;;;;;;23.82;86.23;99059.09;5136459;27;20224;-72
2021/08/29 04:19:08;;;;;;;22.55;18.83;;;;;;;23.80;86.92;99043.16;5129189;27;20208;-72
2021/08/29 04:21:33;;;;;;;28.75;19.35;;;;;;;23.92;85.80;99045.63;5128828;27;20024;-72
2021/08/29 04:24:00;;;;;;;28.48;17.50;;;;;;;23.87;85.66;99049.13;5129677;27;20198;-72
2021/08/29 04:26:26;;;;;;;23.17;18.05;;;;;;;23.70;87.28;99043.09;5125475;27;20035;-72
2021/08/29 04:28:52;;;;;;;25.17;19.35;;;;;;;23.68;87.29;99050.66;5130210;27;20031;-72
2021/08/29 04:31:26;;;;;;;30.38;18.40;;;;;;;23.81;87.14;99047.47;5123283;27;20336;-72
2021/08/29 04:33:52;;;;;;;31.55;19.90;;;;;;;23.89;86.93;99049.66;5129252;27;20324;-72
2021/08/29 04:36:17;;;;;;;28.17;19.10;;;;;;;24.03;86.00;99043.78;5124115;27;20030;-72
2021/08/29 04:38:43;;;;;;;31.40;20.80;;;;;;;23.98;86.84;99046.47;5128539;27;20042;-72
2021/08/29 04:41:08;;;;;;;26.15;19.00;;;;;;;23.99;86.83;99045.41;5126867;27;20032;-72
2021/08/29 04:43:34;;;;;;;27.58;19.50;;;;;;;24.00;87.17;99050.53;5128017;27;20031;-72
2021/08/29 04:45:59;;;;;;;24.88;19.10;;;;;;;24.01;87.61;99052.16;5128964;27;20357;-72
2021/08/29 04:48:25;;;;;;;30.52;18.50;;;;;;;24.12;86.37;99059.22;5128210;27;20036;-72
2021/08/29 04:50:50;;;;;;;25.73;19.20;;;;;;;24.09;86.62;99059.75;5124418;27;20279;-72
2021/08/29 04:53:16;;;;;;;27.92;17.73;;;;;;;24.16;86.28;99059.50;5124586;27;20217;-72
2021/08/29 04:55:42;;;;;;;28.58;18.20;;;;;;;24.03;86.43;99057.31;5127424;27;20336;-72
2021/08/29 04:58:07;;;;;;;29.52;19.00;;;;;;;23.98;86.82;99058.09;5125571;27;20032;-72
2021/08/29 05:00:33;;;;;;;27.08;18.45;;;;;;;23.93;86.90;99049.13;5125981;27;20027;-72
2021/08/29 05:02:58;;;;;;;22.67;18.02;;;;;;;24.06;86.18;99048.66;5125666;27;20046;-72
2021/08/29 05:05:23;;;;;;;28.33;18.05;;;;;;;24.15;85.83;99047.88;5128186;27;20061;-72
2021/08/29 05:07:49;;;;;;;26.65;18.55;;;;;;;24.32;85.28;99047.66;5127515;27;20259;-72
2021/08/29 05:10:14;;;;;;;24.85;17.95;;;;;;;24.32;84.54;99046.84;5127836;27;20312;-72
2021/08/29 05:12:40;;;;;;;26.38;18.48;;;;;;;24.38;83.92;99054.69;5124776;27;20023;-72
2021/08/29 05:15:06;;;;;;;28.58;19.30;;;;;;;24.35;83.41;99055.22;5126257;27;20031;-72
2021/08/29 05:17:31;;;;;;;27.00;18.48;;;;;;;24.28;84.13;99051.97;5126466;27;20097;-72
2021/08/29 05:19:58;;;;;;;26.00;18.83;;;;;;;24.34;84.05;99050.91;5128824;27;20148;-72
2021/08/29 05:22:23;;;;;;;21.98;17.48;;;;;;;24.49;84.04;99050.09;5121472;27;20019;-72
2021/08/29 05:24:49;;;;;;;23.70;17.00;;;;;;;24.48;84.29;99059.31;5127788;27;20046;-72
2021/08/29 05:27:14;;;;;;;19.83;16.63;;;;;;;24.29;84.73;99060.91;5127192;27;20049;-72
2021/08/29 05:29:39;;;;;;;21.55;16.42;;;;;;;24.35;84.84;99063.34;5126069;27;20076;-72
2021/08/29 05:32:05;;;;;;;26.75;17.77;;;;;;;24.29;86.17;99061.72;5128715;27;20034;-72
2021/08/29 05:34:31;;;;;;;20.75;15.52;;;;;;;24.17;87.17;99051.13;5123719;27;20261;-72
2021/08/29 05:36:56;;;;;;;20.80;16.40;;;;;;;24.18;85.77;99055.44;5130760;27;20028;-72
2021/08/29 05:39:21;;;;;;;25.88;16.08;;;;;;;24.31;85.84;99058.75;5128450;27;20016;-72
2021/08/29 05:41:47;;;;;;;25.38;18.52;;;;;;;24.17;85.76;99063.81;5123072;27;20031;-72
2021/08/29 05:44:12;;;;;;;22.90;18.00;;;;;;;24.06;87.27;99056.78;5126954;27;20053;-72
2021/08/29 05:46:38;;;;;;;27.90;19.38;;;;;;;24.08;87.76;99063.53;5122009;27;20038;-72
2021/08/29 05:49:03;;;;;;;25.90;17.48;;;;;;;23.72;88.15;99057.16;5125238;27;20028;-72
2021/08/29 05:51:29;;;;;;;26.95;17.60;;;;;;;23.76;88.61;99055.56;5127345;27;20198;-72
2021/08/29 05:53:54;;;;;;;23.50;16.52;;;;;;;23.80;88.78;99062.06;5127407;27;20061;-72
2021/08/29 05:56:20;;;;;;;22.70;17.60;;;;;;;23.83;88.32;99056.13;5125799;27;20026;-72
2021/08/29 05:58:45;;;;;;;26.63;17.95;;;;;;;23.74;89.49;99060.41;5107811;27;20035;-72
2021/08/29 06:01:17;;;;;;;27.85;18.95;;;;;;;23.61;90.47;99060.91;5126090;27;20030;-72
2021/08/29 06:03:43;;;;;;;27.30;20.73;;;;;;;23.55;91.22;99065.47;5122054;27;20532;-72
2021/08/29 06:06:08;;;;;;;34.13;23.70;;;;;;;23.65;90.89;99062.00;5128456;27;20082;-73
2021/08/29 06:08:34;;;;;;;31.48;24.98;;;;;;;23.85;90.21;99056.69;5121437;27;20243;-72
2021/08/29 06:10:59;;;;;;;37.33;26.10;;;;;;;23.88;89.87;99066.16;5125385;27;20243;-72
2021/08/29 06:13:25;;;;;;;32.28;23.58;;;;;;;23.97;88.71;99064.59;5126065;27;20035;-72
2021/08/29 06:15:51;;;;;;;31.45;23.35;;;;;;;24.04;88.26;99062.44;5124363;27;20336;-72
2021/08/29 06:18:17;;;;;;;31.77;24.27;;;;;;;24.03;88.33;99068.94;5124389;27;20065;-72
2021/08/29 06:20:42;;;;;;;30.67;21.60;;;;;;;24.14;87.18;99061.66;5125729;27;20036;-72
2021/08/29 06:23:08;;;;;;;28.55;21.13;;;;;;;23.90;87.91;99061.28;5127413;27;20062;-72
2021/08/29 06:25:34;;;;;;;27.60;22.88;;;;;;;24.24;88.10;99060.88;5124006;27;20347;-72
2021/08/29 06:27:59;;;;;;;31.13;24.30;;;;;;;24.27;86.63;99055.75;5124992;27;20027;-72
2021/08/29 06:30:24;;;;;;;27.48;21.20;;;;;;;24.26;85.56;99059.53;5122939;27;20024;-72
2021/08/29 06:32:50;;;;;;;30.70;22.90;;;;;;;24.41;85.32;99058.75;5129617;27;20031;-69
2021/08/29 06:35:16;;;;;;;27.52;20.48;;;;;;;24.47;85.46;99052.28;5123764;27;20039;-69
2021/08/29 06:37:41;;;;;;;30.83;20.77;;;;;;;24.48;85.92;99045.78;5125641;27;20038;-72
2021/08/29 06:40:07;;;;;;;29.95;20.20;;;;;;;24.24;85.05;99050.84;5123474;27;20023;-72
2021/08/29 06:42:33;;;;;;;27.15;20.30;;;;;;;24.24;85.91;99053.56;5127417;27;20076;-70
2021/08/29 06:44:58;;;;;;;25.67;20.38;;;;;;;24.45;86.06;99047.13;5123993;27;20205;-69
2021/08/29 06:47:24;;;;;;;32.60;20.38;;;;;;;24.58;84.98;99053.91;5127744;27;20027;-70
2021/08/29 06:49:49;;;;;;;28.95;20.58;;;;;;;24.98;84.15;99049.63;5123608;27;20031;-72
2021/08/29 06:52:14;;;;;;;26.73;19.58;;;;;;;25.02;82.16;99046.09;5127330;27;20366;-69
2021/08/29 06:54:40;;;;;;;25.50;19.38;;;;;;;25.42;80.98;99044.38;5123568;28;20340;-72
2021/08/29 06:57:05;;;;;;;31.00;20.23;;;;;;;25.69;79.93;99041.31;5105161;28;20023;-69
2021/08/29 06:59:31;;;;;;;25.05;18.50;;;;;;;26.24;77.50;99044.84;5122394;28;20039;-72
2021/08/29 07:01:56;;;;;;;24.30;18.30;;;;;;;26.78;74.83;99042.00;5126124;28;20235;-69
2021/08/29 07:04:22;;;;;;;25.80;18.77;;;;;;;26.50;74.40;99048.22;5124983;27;20038;-69
2021/08/29 07:06:47;;;;;;;25.10;18.27;;;;;;;26.49;74.07;99039.25;5124204;28;20337;-69
2021/08/29 07:09:13;;;;;;;24.27;18.67;;;;;;;26.75;73.77;99033.63;5124093;28;20047;-69
2021/08/29 07:11:38;;;;;;;27.15;18.95;;;;;;;26.91;73.06;99030.47;5121839;28;20042;-69
2021/08/29 07:14:03;;;;;;;25.13;17.90;;;;;;;27.02;71.68;99033.94;5123800;27;20040;-69
2021/08/29 07:16:29;;;;;;;24.38;17.88;;;;;;;27.25;70.99;99024.22;5121022;28;20030;-69
2021/08/29 07:18:54;;;;;;;25.00;18.35;;;;;;;27.52;70.64;99031.78;5122993;28;20186;-69
2021/08/29 07:21:20;;;;;;;27.30;20.33;;;;;;;27.77;69.37;99031.50;5124946;28;20892;-69
2021/08/29 07:23:45;;;;;;;23.05;19.02;;;;;;;27.81;68.08;99032.53;5124117;28;20059;-69
2021/08/29 07:26:14;;;;;;;26.20;18.15;;;;;;;27.73;68.98;99035.91;5122262;28;20038;-69
2021/08/29 07:28:43;;;;;;;26.08;19.58;;;;;;;27.51;68.63;99035.63;5124211;28;20038;-69
2021/08/29 07:31:08;;;;;;;30.92;20.33;;;;;;;27.45;69.26;99023.19;5125355;28;20058;-71
2021/08/29 07:33:34;;;;;;;26.38;20.15;;;;;;;27.49;68.50;99029.66;5125502;28;20328;-72
2021/08/29 07:35:59;;;;;;;24.98;19.80;;;;;;;27.57;68.87;99023.56;5122675;28;20031;-69
2021/08/29 07:38:25;;;;;;;26.80;20.30;;;;;;;27.88;67.49;99027.56;5128094;27;20033;-69
2021/08/29 07:40:50;;;;;;;26.02;19.38;;;;;;;28.40;65.78;99017.59;5123359;28;20103;-69
2021/08/29 07:43:15;;;;;;;25.60;18.88;;;;;;;28.60;64.90;99019.19;5125059;28;20031;-69
2021/08/29 07:45:41;;;;;;;29.20;19.90;;;;;;;28.76;65.14;99017.00;5123464;28;20023;-69
2021/08/29 07:48:06;;;;;;;25.90;18.67;;;;;;;29.43;63.17;99012.00;5127069;28;20034;-69
2021/08/29 07:50:32;;;;;;;33.53;21.15;;;;;;;29.45;61.81;99009.78;5121001;28;20027;-69
2021/08/29 07:52:57;;;;;;;25.60;19.30;;;;;;;29.34;63.04;99009.16;5123981;27;20027;-69
2021/08/29 07:55:23;;;;;;;25.38;18.75;;;;;;;29.46;62.24;99014.94;5122654;28;20085;-69
2021/08/29 07:57:48;;;;;;;26.67;20.50;;;;;;;29.47;63.06;99005.66;5128777;28;20035;-69
2021/08/29 08:00:14;;;;;;;32.53;23.45;;;;;;;29.40;62.47;99007.94;5121754;28;20024;-69
2021/08/29 08:02:39;;;;;;;29.75;22.13;;;;;;;29.50;62.14;99005.03;5129106;27;20097;-69
2021/08/29 08:05:05;;;;;;;33.03;22.63;;;;;;;29.83;60.15;98994.78;5126436;27;20042;-69
2021/08/29 08:07:31;;;;;;;34.20;21.88;;;;;;;29.90;59.56;98997.09;5134282;27;20090;-71
2021/08/29 08:09:56;;;;;;;38.38;23.05;;;;;;;29.93;58.63;98987.47;5127712;27;20045;-72
2021/08/29 08:12:22;;;;;;;30.33;22.90;;;;;;;30.25;58.30;98989.25;5127781;27;20027;-69
2021/08/29 08:14:47;;;;;;;39.53;23.83;;;;;;;30.27;58.71;99001.47;5115312;27;20023;-69
2021/08/29 08:17:12;;;;;;;39.03;23.30;;;;;;;30.41;56.14;98988.56;5127129;27;20034;-72
2021/08/29 08:19:38;;;;;;;37.33;24.58;;;;;;;30.62;57.42;98990.81;5130437;27;20041;-72
2021/08/29 08:22:04;;;;;;;35.50;23.90;;;;;;;30.58;56.82;98992.53;5127233;27;20314;-72
2021/08/29 08:24:29;;;;;;;36.78;23.55;;;;;;;30.76;55.82;98984.16;5127967;27;20036;-69
2021/08/29 08:26:54;;;;;;;38.08;26.05;;;;;;;30.61;56.51;98987.28;5126446;27;20366;-69
2021/08/29 08:29:20;;;;;;;43.38;26.05;;;;;;;30.04;58.62;98984.25;5130421;27;20040;-72
2021/08/29 08:31:45;;;;;;;48.95;31.48;;;;;;;29.66;60.03;98982.88;5126398;27;20036;-69
2021/08/29 08:34:11;;;;;;;44.03;28.52;;;;;;;29.13;60.56;98977.91;5132486;27;20023;-69
2021/08/29 08:36:36;;;;;;;43.10;28.38;;;;;;;29.41;58.52;98960.47;5125828;27;20328;-69
2021/08/29 08:39:02;;;;;;;45.45;27.52;;;;;;;30.13;57.29;98981.59;5129280;27;20084;-69
2021/08/29 08:41:28;;;;;;;39.00;27.15;;;;;;;30.35;57.76;98976.16;5125273;27;20032;-72
2021/08/29 08:43:53;;;;;;;42.88;28.98;;;;;;;30.70;56.47;98981.88;5129120;27;20377;-70
2021/08/29 08:46:20;;;;;;;44.00;29.23;;;;;;;29.91;58.51;98974.13;5128539;27;20100;-72
2021/08/29 08:48:49;;;;;;;46.60;30.85;;;;;;;29.56;57.52;98967.56;5126951;27;20081;-69
2021/08/29 08:51:21;;;;;;;44.75;31.65;;;;;;;29.95;57.57;98972.41;5107366;28;20035;-72
2021/08/29 08:53:50;;;;;;;40.42;28.52;;;;;;;29.45;57.46;98971.59;5132800;27;20031;-72
2021/08/29 08:56:17;;;;;;;46.20;32.05;;;;;;;29.20;58.79;98970.19;5135143;27;20033;-72
2021/08/29 08:58:43;;;;;;;43.38;31.35;;;;;;;28.81;58.62;98976.03;5135298;27;20059;-71
2021/08/29 09:01:08;;;;;;;52.15;36.22;;;;;;;28.96;61.41;98967.63;5135342;27;20732;-69
2021/08/29 09:03:35;;;;;;;45.05;31.40;;;;;;;28.93;61.50;98968.22;5133305;27;20279;-72
2021/08/29 09:06:02;;;;;;;48.47;32.63;;;;;;;28.64;62.05;98970.34;5135502;27;20042;-69
2021/08/29 09:08:27;;;;;;;46.28;32.08;;;;;;;28.94;61.73;98967.09;5136393;27;20067;-69
2021/08/29 09:10:53;;;;;;;50.15;33.90;;;;;;;29.12;59.48;98965.41;5124076;27;20261;-69
2021/08/29 09:13:18;;;;;;;45.63;32.65;;;;;;;29.15;59.32;98960.19;5124336;27;20031;-72
2021/08/29 09:15:43;;;;;;;51.03;33.45;;;;;;;29.57;59.03;98962.91;5125673;27;20023;-70
2021/08/29 09:18:10;;;;;;;45.28;32.88;;;;;;;29.58;57.05;98956.34;5147895;27;20033;-72
2021/08/29 09:20:37;;;;;;;43.67;30.42;;;;;;;28.91;58.20;98962.25;5143043;27;20031;-72
2021/08/29 09:23:07;;;;;;;49.08;32.90;;;;;;;28.87;59.17;98964.78;5141866;27;20035;-72
2021/08/29 09:25:40;;;;;;;44.95;30.67;;;;;;;28.55;59.46;98962.88;5142822;27;20035;-71
2021/08/29 09:28:09;;;;;;;44.55;31.92;;;;;;;28.39;60.50;98964.25;5125087;27;20250;-69
2021/08/29 09:30:35;;;;;;;49.63;34.00;;;;;;;28.22;62.79;98953.88;5143099;27;20364;-72
2021/08/29 09:33:04;;;;;;;54.33;35.63;;;;;;;27.82;65.27;98958.00;5143361;27;20035;-71
2021/08/29 09:35:32;;;;;;;64.63;37.85;;;;;;;27.77;65.32;98963.50;5139545;27;20038;-69
2021/08/29 09:37:59;;;;;;;52.72;35.45;;;;;;;28.04;63.62;98954.66;5142815;27;20042;-69
2021/08/29 09:40:31;;;;;;;49.15;35.10;;;;;;;28.29;62.11;98956.25;5143643;27;20023;-72
2021/08/29 09:42:58;;;;;;;51.15;35.63;;;;;;;28.41;61.72;98947.59;5143359;27;20049;-72
2021/08/29 09:45:32;;;;;;;47.00;34.25;;;;;;;28.24;60.42;98945.44;5141180;27;20102;-72
2021/08/29 09:48:06;;;;;;;47.30;33.47;;;;;;;28.53;59.17;98945.22;5124971;27;20033;-69
2021/08/29 09:50:34;;;;;;;50.65;33.53;;;;;;;28.71;58.56;98941.63;5142021;27;20039;-69
2021/08/29 09:53:02;;;;;;;46.70;33.65;;;;;;;28.52;59.37;98938.97;5141885;27;20042;-70
2021/08/29 09:55:36;;;;;;;43.78;30.83;;;;;;;28.45;56.83;98940.44;5142751;27;20031;-72
2021/08/29 09:58:21;;;;;;;52.58;34.15;;;;;;;28.52;58.65;98933.50;5142842;27;20316;-72
2021/08/29 10:01:12;;;;;;;48.22;31.67;;;;;;;28.49;58.92;98939.56;5142888;27;20035;-69
2021/08/29 10:03:39;;;;;;;45.67;33.55;;;;;;;28.71;58.67;98936.16;5142399;27;20043;-69
2021/08/29 10:06:21;;;;;;;48.33;32.60;;;;;;;29.05;57.84;98941.28;5142824;27;20254;-70
2021/08/29 10:08:53;;;;;;;50.92;33.30;;;;;;;28.96;57.54;98931.38;5142753;27;20046;-69
2021/08/29 10:11:20;;;;;;;46.00;32.40;;;;;;;29.10;57.77;98924.00;5124247;27;20340;-71
2021/08/29 10:13:46;;;;;;;46.50;33.08;;;;;;;29.26;56.79;98933.53;5142510;27;20046;-69
2021/08/29 10:16:13;;;;;;;44.05;29.13;;;;;;;29.02;55.17;98922.00;5142765;27;20031;-71
2021/08/29 10:18:48;;;;;;;41.38;29.92;;;;;;;28.85;57.38;98931.56;5142636;27;20026;-71
2021/08/29 10:21:16;;;;;;;46.63;33.95;;;;;;;28.96;58.16;98931.38;5142327;27;20098;-71
2021/08/29 10:23:47;;;;;;;44.03;31.50;;;;;;;29.26;58.52;98927.25;5141630;27;20357;-69
2021/08/29 10:26:15;;;;;;;51.67;33.25;;;;;;;29.33;57.54;98920.28;5142598;27;20039;-69
2021/08/29 10:28:47;;;;;;;48.58;30.55;;;;;;;29.37;55.19;98921.28;5139440;27;20031;-69
2021/08/29 10:31:17;;;;;;;45.72;31.92;;;;;;;29.17;55.84;98914.34;5142043;27;20034;-70
2021/08/29 10:33:47;;;;;;;46.55;30.02;;;;;;;29.21;57.06;98909.91;5142256;27;20042;-72
2021/08/29 10:36:17;;;;;;;45.58;30.20;;;;;;;28.81;56.55;98913.38;5142215;27;20019;-72
2021/08/29 10:38:45;;;;;;;51.13;32.92;;;;;;;28.86;56.28;98905.94;5142570;27;20043;-70
2021/08/29 10:41:11;;;;;;;46.67;31.38;;;;;;;29.09;55.70;98897.84;5142246;27;20031;-72
2021/08/29 10:43:39;;;;;;;53.10;33.28;;;;;;;29.24;57.05;98906.56;5141970;27;20023;-70
2021/08/29 10:46:09;;;;;;;48.50;33.85;;;;;;;29.49;55.99;98897.06;5142177;27;20278;-70
2021/08/29 10:48:39;;;;;;;50.67;31.02;;;;;;;29.68;53.76;98894.16;5142030;27;20023;-69
2021/08/29 10:51:05;;;;;;;49.65;31.95;;;;;;;29.09;55.56;98900.59;5141988;27;20220;-72
2021/08/29 10:53:36;;;;;;;51.33;34.85;;;;;;;29.08;55.89;98888.88;5141752;27;20038;-70
2021/08/29 10:56:16;;;;;;;44.45;32.40;;;;;;;28.45;57.70;98888.72;5123740;27;20224;-72
2021/08/29 10:58:42;;;;;;;53.75;35.63;;;;;;;28.40;58.07;98869.75;5141789;27;20341;-72
2021/08/29 11:01:39;;;;;;;52.45;36.35;;;;;;;28.68;58.73;98889.66;5142027;27;20034;-69
2021/08/29 11:04:19;;;;;;;52.55;35.72;;;;;;;28.54;57.77;98885.00;5141799;27;20084;-70
2021/08/29 11:06:54;;;;;;;48.95;35.13;;;;;;;28.67;57.17;98879.88;5140690;27;20026;-69
2021/08/29 11:09:34;;;;;;;51.13;35.30;;;;;;;28.72;57.95;98882.50;5141819;27;20031;-70
2021/08/29 11:12:13;;;;;;;59.58;36.67;;;;;;;28.75;58.06;98877.25;5141624;27;20090;-70
2021/08/29 11:14:51;;;;;;;53.83;36.42;;;;;;;29.07;57.49;98870.91;5122764;27;20027;-72
2021/08/29 11:17:32;;;;;;;51.47;34.80;;;;;;;29.28;56.36;98874.03;5134609;27;20032;-69